Time;durP1;ratioP1;P1;durP2;ratioP2;P2;SDS_P1;SDS_P2;PMS_P1;PMS_P2;Temp;Humidity;BMP_temperature;BMP_pressure;BME280_temperature;BME280_humidity;BME280_pressure;Samples;Min_cycle;Max_cycle;Signal;HPM_P1;HPM_P2
2022/03/18 00:01:07;;;;;;;25.80;12.90;;;;;;;0.05;44.79;102926.74;84790;1322;22715;-77
2022/03/18 00:03:16;;;;;;;19.60;12.50;;;;;;;0.05;44.86;102930.17;84846;1324;24327;-77
2022/03/18 00:05:24;;;;;;;19.10;11.70;;;;;;;0.04;44.56;102930.96;84849;1318;23222;-75
2022/03/18 00:07:30;;;;;;;20.60;12.10;;;;;;;0.02;44.87;102935.00;84860;1328;22588;-77
2022/03/18 00:09:41;;;;;;;23.00;13.70;;;;;;;0.00;44.84;102936.98;84772;1329;22596;-69
2022/03/18 00:11:48;;;;;;;23.60;11.70;;;;;;;-0.02;44.84;102943.92;84854;1325;22586;-69
2022/03/18 00:13:58;;;;;;;23.50;12.40;;;;;;;-0.05;45.08;102946.04;84829;1326;24232;-71
2022/03/18 00:16:05;;;;;;;25.80;12.40;;;;;;;-0.07;45.19;102947.80;84813;1327;25513;-69
2022/03/18 00:18:11;;;;;;;20.90;12.70;;;;;;;-0.08;44.82;102947.27;84820;1325;22577;-69
2022/03/18 00:20:21;;;;;;;23.20;12.90;;;;;;;-0.10;45.13;102951.13;84838;1325;24228;-69
2022/03/18 00:22:30;;;;;;;21.90;11.10;;;;;;;-0.13;45.23;102952.88;84829;1327;22590;-70
2022/03/18 00:24:37;;;;;;;25.00;12.70;;;;;;;-0.13;45.36;102954.38;84848;1319;22588;-77
2022/03/18 00:26:44;;;;;;;19.80;11.30;;;;;;;-0.14;45.20;102956.05;84838;1327;25482;-77
2022/03/18 00:28:56;;;;;;;19.60;12.00;;;;;;;-0.17;45.38;102957.63;84803;1328;26476;-77
2022/03/18 00:31:03;;;;;;;18.40;11.00;;;;;;;-0.22;45.38;102956.90;84842;1324;22616;-77
2022/03/18 00:33:10;;;;;;;19.50;11.80;;;;;;;-0.25;45.46;102954.88;84863;1327;24296;-76
2022/03/18 00:35:16;;;;;;;19.70;11.70;;;;;;;-0.26;45.46;102952.91;84806;1319;22830;-76
2022/03/18 00:37:23;;;;;;;18.40;12.30;;;;;;;-0.30;45.63;102954.48;84815;1324;24214;-76
2022/03/18 00:39:30;;;;;;;22.60;13.00;;;;;;;-0.32;45.79;102956.06;84830;1324;25485;-75
2022/03/18 00:41:37;;;;;;;19.40;11.50;;;;;;;-0.36;45.97;102955.02;84126;1326;1003131;-75
2022/03/18 00:43:44;;;;;;;16.10;11.20;;;;;;;-0.39;45.97;102957.61;84089;1328;1003535;-77
2022/03/18 00:45:51;;;;;;;19.50;11.70;;;;;;;-0.44;46.30;102960.11;84152;1318;1002947;-74
2022/03/18 00:52:45;;;;;;;24.50;13.70;;;;;;;-0.58;46.76;102959.42;84872;1324;24271;-70
2022/03/18 00:54:55;;;;;;;23.70;13.50;;;;;;;-0.63;46.86;102963.11;84818;1327;22610;-69
2022/03/18 00:57:02;;;;;;;20.90;12.50;;;;;;;-0.71;47.15;102963.23;84788;1321;22595;-70
2022/03/18 00:59:10;;;;;;;19.10;11.70;;;;;;;-0.79;47.42;102966.27;84776;1323;22600;-69
2022/03/18 01:01:16;;;;;;;22.30;12.30;;;;;;;-0.85;47.62;102965.31;84787;1327;25371;-70
2022/03/18 01:03:23;;;;;;;19.80;11.20;;;;;;;-0.90;47.58;102959.40;84809;1325;22633;-70
2022/03/18 01:05:32;;;;;;;17.80;11.50;;;;;;;-0.95;48.04;102960.65;84770;1328;24854;-69
2022/03/18 01:07:40;;;;;;;22.20;12.20;;;;;;;-1.03;48.36;102957.54;84849;1328;22609;-70
2022/03/18 01:09:49;;;;;;;25.20;11.60;;;;;;;-1.09;48.43;102953.98;84799;1326;24253;-69
2022/03/18 01:11:58;;;;;;;22.30;11.80;;;;;;;-1.15;48.47;102954.18;84847;1322;22704;-70
2022/03/18 01:14:07;;;;;;;21.10;11.90;;;;;;;-1.22;48.95;102954.34;84829;1324;22583;-69
2022/03/18 01:16:16;;;;;;;25.90;12.30;;;;;;;-1.28;49.06;102954.52;84831;1318;22581;-69
2022/03/18 01:18:25;;;;;;;26.00;12.30;;;;;;;-1.32;48.84;102950.88;84153;1324;1003551;-70
2022/03/18 01:20:36;;;;;;;18.20;11.80;;;;;;;-1.34;48.88;102956.27;84132;1325;1003162;-69
2022/03/18 01:22:45;;;;;;;25.10;12.60;;;;;;;-1.36;49.20;102961.46;84780;1326;22617;-69
2022/03/18 01:24:53;;;;;;;21.30;13.00;;;;;;;-1.37;49.17;102965.52;84836;1323;24499;-77
2022/03/18 01:27:03;;;;;;;26.60;12.40;;;;;;;-1.41;49.63;102968.37;84870;1324;22603;-76
2022/03/18 01:29:11;;;;;;;25.20;13.80;;;;;;;-1.46;49.67;102969.84;84875;1324;23810;-75
2022/03/18 01:31:21;;;;;;;22.20;12.20;;;;;;;-1.49;49.51;102968.11;84839;1324;26439;-77
2022/03/18 01:33:35;;;;;;;18.50;9.40;;;;;;;-1.51;49.51;102970.06;84856;1324;22637;-77
2022/03/18 01:35:45;;;;;;;25.30;12.50;;;;;;;-1.55;49.77;102964.56;84874;1324;22576;-76
2022/03/18 01:37:54;;;;;;;20.90;12.20;;;;;;;-1.59;50.09;102966.59;84799;1322;22723;-76
2022/03/18 01:40:08;;;;;;;25.90;14.40;;;;;;;-1.63;50.01;102973.55;84801;1327;22844;-69
2022/03/18 01:42:18;;;;;;;23.00;14.00;;;;;;;-1.65;49.95;102973.13;84854;1324;22665;-69
2022/03/18 01:44:27;;;;;;;24.50;13.10;;;;;;;-1.66;50.03;102976.47;84844;1323;22620;-76
2022/03/18 01:46:37;;;;;;;21.90;11.30;;;;;;;-1.69;50.18;102974.45;84822;1321;22728;-77
2022/03/18 01:48:50;;;;;;;21.90;12.60;;;;;;;-1.69;50.48;102975.48;84826;1325;24248;-75
2022/03/18 01:50:59;;;;;;;23.50;12.50;;;;;;;-1.66;50.39;102973.58;84796;1326;22599;-76
2022/03/18 01:53:10;;;;;;;22.60;12.10;;;;;;;-1.66;50.31;102974.78;84843;1326;23898;-76
2022/03/18 01:55:19;;;;;;;25.00;11.80;;;;;;;-1.68;50.28;102973.33;84783;1326;24253;-76
2022/03/18 01:57:31;;;;;;;20.80;12.10;;;;;;;-1.68;50.38;102973.98;84857;1323;23018;-76
2022/03/18 01:59:40;;;;;;;23.80;12.50;;;;;;;-1.68;50.24;102972.81;84818;1324;22580;-69
2022/03/18 02:01:49;;;;;;;26.60;13.70;;;;;;;-1.70;50.50;102975.09;84127;1324;1003894;-69
2022/03/18 02:03:59;;;;;;;19.50;11.30;;;;;;;-1.71;50.57;102976.23;84770;1322;22551;-74
2022/03/18 02:06:11;;;;;;;20.90;12.00;;;;;;;-1.73;50.60;102977.16;84798;1327;23645;-76
2022/03/18 02:08:21;;;;;;;23.90;11.50;;;;;;;-1.72;50.60;102977.34;84838;1324;22689;-77
2022/03/18 02:10:30;;;;;;;25.00;12.80;;;;;;;-1.72;50.52;102979.40;84081;1325;1003274;-69
2022/03/18 02:12:41;;;;;;;23.60;13.40;;;;;;;-1.75;50.66;102980.59;84794;1322;22635;-69
2022/03/18 02:14:49;;;;;;;;;;;;;;;-1.79;50.98;102980.05;84832;1326;22601;-76
2022/03/18 02:16:58;;;;;;;20.00;11.10;;;;;;;-1.86;51.31;102977.30;84782;1327;25549;-76
2022/03/18 02:19:10;;;;;;;20.30;11.10;;;;;;;-1.89;50.95;102977.48;84792;1325;23166;-74
2022/03/18 02:21:22;;;;;;;19.90;12.60;;;;;;;-1.91;51.28;102980.44;84072;1321;1003303;-77
2022/03/18 02:23:31;;;;;;;23.80;11.80;;;;;;;-1.95;51.24;102978.33;84770;1326;26766;-76
2022/03/18 02:25:40;;;;;;;26.40;13.00;;;;;;;-1.99;51.38;102983.24;84806;1327;22813;-70
2022/03/18 02:28:06;;;;;;;20.30;11.00;;;;;;;-2.03;51.27;102985.58;84789;1325;24264;-70
2022/03/18 02:30:16;;;;;;;21.70;11.60;;;;;;;-2.09;51.54;102990.23;84806;1327;25314;-77
2022/03/18 02:32:25;;;;;;;18.20;9.80;;;;;;;-2.15;51.73;102987.31;84779;1326;22690;-77
2022/03/18 02:34:34;;;;;;;23.90;12.10;;;;;;;-2.22;52.05;102987.95;84791;1321;22861;-76
2022/03/18 02:36:43;;;;;;;17.20;10.80;;;;;;;-2.26;52.05;102992.34;84786;1327;22603;-76
2022/03/18 02:39:02;;;;;;;26.70;11.50;;;;;;;-2.27;52.10;102994.00;84773;1326;25424;-75
2022/03/18 02:41:13;;;;;;;16.60;10.80;;;;;;;-2.30;52.52;102993.64;84790;1328;23940;-69
2022/03/18 02:43:22;;;;;;;20.70;11.20;;;;;;;-2.35;52.99;102994.73;84747;1327;22633;-69
2022/03/18 02:45:31;;;;;;;23.90;12.70;;;;;;;-2.39;52.66;102993.65;84658;1327;22583;-70
2022/03/18 02:47:44;;;;;;;20.80;11.90;;;;;;;-2.43;52.54;102998.40;84077;1325;1003370;-71
2022/03/18 02:49:52;;;;;;;18.20;11.00;;;;;;;-2.48;53.29;103000.67;84786;1327;22613;-68
2022/03/18 02:52:05;;;;;;;21.10;12.30;;;;;;;-2.54;53.26;103002.20;84666;1329;22587;-68
2022/03/18 02:54:14;;;;;;;20.30;12.30;;;;;;;-2.61;53.74;103004.52;84811;1329;24099;-76
2022/03/18 02:56:26;;;;;;;21.90;11.60;;;;;;;-2.67;53.85;103002.81;84790;1327;24828;-77
2022/03/18 02:58:36;;;;;;;23.30;12.70;;;;;;;-2.70;54.04;103008.27;84773;1326;26475;-75
2022/03/18 03:00:45;;;;;;;22.10;12.20;;;;;;;-2.75;54.23;103010.55;84756;1327;22665;-70
2022/03/18 03:02:54;;;;;;;21.30;11.60;;;;;;;-2.80;54.27;103011.46;84066;1327;1003095;-70
2022/03/18 03:09:57;;;;;;;22.40;12.50;;;;;;;-2.91;54.71;103026.71;84787;1327;22934;-70
2022/03/18 03:12:09;;;;;;;24.00;12.60;;;;;;;-2.95;55.30;103026.09;84802;1327;22591;-70
2022/03/18 03:14:21;;;;;;;25.90;13.60;;;;;;;-2.99;55.13;103028.26;84842;1327;24352;-77
2022/03/18 03:16:30;;;;;;;26.20;14.20;;;;;;;-3.04;56.07;103032.91;84792;1326;25875;-77
2022/03/18 03:18:38;;;;;;;29.90;14.90;;;;;;;-3.08;56.25;103031.30;84813;1326;22573;-77
2022/03/18 03:20:48;;;;;;;32.80;14.40;;;;;;;-3.12;55.99;103034.45;84100;1326;1004138;-76
2022/03/18 03:22:59;;;;;;;19.30;10.20;;;;;;;-3.18;56.15;103033.79;84779;1326;22592;-77
2022/03/18 03:25:10;;;;;;;26.30;14.80;;;;;;;-3.23;56.71;103037.90;84801;1329;23984;-77
2022/03/18 03:27:19;;;;;;;29.40;14.90;;;;;;;-3.26;56.84;103037.88;84798;1327;24384;-76
2022/03/18 03:29:28;;;;;;;26.50;13.10;;;;;;;-3.30;56.49;103040.21;84821;1319;22932;-69
2022/03/18 03:31:37;;;;;;;26.80;14.00;;;;;;;-3.34;57.24;103041.80;84805;1327;22581;-69
2022/03/18 03:33:47;;;;;;;28.30;13.80;;;;;;;-3.39;57.42;103044.60;84091;1327;1002930;-70
2022/03/18 03:35:56;;;;;;;29.40;14.20;;;;;;;-3.41;57.15;103042.41;84770;1325;22604;-68
2022/03/18 03:38:05;;;;;;;22.90;13.30;;;;;;;-3.44;57.67;103044.43;84794;1327;22557;-69
2022/03/18 03:40:16;;;;;;;26.80;14.20;;;;;;;-3.47;57.92;103044.63;84787;1326;22593;-78
2022/03/18 03:42:28;;;;;;;24.10;13.60;;;;;;;-3.48;57.83;103047.48;84788;1327;22844;-76
2022/03/18 03:44:38;;;;;;;23.10;12.80;;;;;;;-3.50;58.17;103048.18;84806;1324;22603;-75
2022/03/18 03:46:45;;;;;;;;;;;;;;;-3.52;57.78;103052.85;84801;1327;22570;-76
2022/03/18 03:48:57;;;;;;;28.80;16.40;;;;;;;-3.59;57.82;103054.42;84778;1329;24412;-71
2022/03/18 03:51:06;;;;;;;28.80;14.10;;;;;;;-3.63;58.23;103057.79;84092;1326;1003194;-69
2022/03/18 03:53:18;;;;;;;25.60;13.70;;;;;;;-3.67;58.11;103055.98;84789;1327;23079;-69
2022/03/18 03:55:27;;;;;;;28.60;15.70;;;;;;;-3.73;58.51;103060.92;82401;1326;3374133;-75
2022/03/18 03:57:36;;;;;;;18.90;12.00;;;;;;;-3.76;58.37;103062.95;84792;1327;22577;-77
2022/03/18 03:59:45;;;;;;;27.80;14.20;;;;;;;-3.80;58.48;103065.07;84089;1326;1003036;-70
2022/03/18 04:01:58;;;;;;;32.90;17.10;;;;;;;-3.83;59.32;103061.63;84786;1327;22603;-70
2022/03/18 04:04:07;;;;;;;31.30;14.30;;;;;;;-3.83;58.92;103063.84;84759;1327;22731;-70
2022/03/18 04:06:17;;;;;;;28.60;15.50;;;;;;;-3.82;58.80;103066.64;84780;1327;26615;-70
2022/03/18 04:08:29;;;;;;;24.50;13.00;;;;;;;-3.83;58.82;103071.02;84802;1325;22574;-71
2022/03/18 04:10:42;;;;;;;49.30;22.50;;;;;;;-3.86;59.12;103074.75;84799;1327;22592;-77
2022/03/18 04:12:51;;;;;;;39.50;19.10;;;;;;;-3.86;58.94;103081.54;84803;1323;25589;-77
2022/03/18 04:14:59;;;;;;;34.40;17.70;;;;;;;-3.87;59.50;103082.16;84790;1327;22603;-70
2022/03/18 04:17:08;;;;;;;32.40;17.40;;;;;;;-3.91;59.73;103082.65;84774;1326;25489;-71
2022/03/18 04:19:17;;;;;;;25.90;14.50;;;;;;;-3.91;59.64;103090.95;84716;1325;22594;-71
2022/03/18 04:21:29;;;;;;;21.70;12.90;;;;;;;-3.94;59.46;103090.57;84780;1326;22886;-71
2022/03/18 04:23:38;;;;;;;38.70;17.80;;;;;;;-3.96;59.94;103094.88;84794;1326;22586;-71
2022/03/18 04:25:50;;;;;;;40.30;17.60;;;;;;;-3.97;59.60;103097.23;84810;1327;23027;-77
2022/03/18 04:27:59;;;;;;;30.40;14.30;;;;;;;-3.96;59.97;103098.13;84788;1326;22736;-77
2022/03/18 04:30:11;;;;;;;38.10;15.80;;;;;;;-3.96;60.17;103102.09;84799;1326;24288;-75
2022/03/18 04:32:24;;;;;;;39.00;17.30;;;;;;;-3.94;60.15;103103.20;84803;1327;22599;-77
2022/03/18 04:34:33;;;;;;;52.20;20.00;;;;;;;-3.93;60.27;103111.65;84834;1327;22582;-70
2022/03/18 04:36:42;;;;;;;40.80;18.90;;;;;;;-3.92;60.34;103113.92;84795;1326;24183;-70
2022/03/18 04:38:55;;;;;;;31.30;16.70;;;;;;;-3.92;60.15;103112.87;84788;1322;22702;-70
2022/03/18 04:41:03;;;;;;;37.90;18.90;;;;;;;-3.92;60.30;103115.61;84765;1326;22592;-77
2022/03/18 04:43:12;;;;;;;40.80;19.50;;;;;;;-3.92;59.80;103119.41;84063;1326;1003171;-76
2022/03/18 04:45:21;;;;;;;38.60;18.00;;;;;;;-3.92;60.24;103118.04;84767;1327;22590;-70
2022/03/18 04:47:33;;;;;;;33.30;16.40;;;;;;;-3.93;60.30;103124.59;84770;1327;22668;-70
2022/03/18 04:49:42;;;;;;;32.30;16.10;;;;;;;-3.96;60.55;103127.13;84799;1319;22583;-71
2022/03/18 04:51:56;;;;;;;33.00;17.20;;;;;;;-3.97;60.38;103127.06;84793;1327;25459;-70
2022/03/18 04:54:06;;;;;;;36.70;17.40;;;;;;;-3.98;60.33;103128.54;84799;1327;22757;-70
2022/03/18 04:58:38;;;;;;;41.00;19.70;;;;;;;-4.02;60.59;103131.31;84095;1326;1003333;-71
2022/03/18 05:00:50;;;;;;;39.80;19.30;;;;;;;-4.03;60.93;103132.63;84061;1325;1003229;-77
2022/03/18 05:03:00;;;;;;;36.90;18.50;;;;;;;-4.05;60.61;103132.86;84785;1327;22734;-77
2022/03/18 05:05:11;;;;;;;34.50;18.10;;;;;;;-4.06;60.60;103141.80;84801;1326;24310;-70
2022/03/18 05:07:22;;;;;;;34.10;19.30;;;;;;;-4.07;61.64;103148.24;84801;1326;26593;-72
2022/03/18 05:09:41;;;;;;;30.80;17.10;;;;;;;-4.06;61.41;103149.32;84067;1327;1003698;-71
2022/03/18 05:11:50;;;;;;;30.90;16.40;;;;;;;-4.08;60.95;103152.61;84784;1327;22603;-70
2022/03/18 05:14:00;;;;;;;34.60;16.10;;;;;;;-4.10;60.75;103153.65;84756;1322;22581;-75
2022/03/18 05:16:11;;;;;;;44.30;17.80;;;;;;;-4.11;61.35;103154.27;84078;1322;1003082;-76
2022/03/18 05:18:21;;;;;;;25.60;14.80;;;;;;;-4.09;61.38;103158.64;84688;1328;25619;-77
2022/03/18 05:20:30;;;;;;;36.40;17.70;;;;;;;-4.06;61.46;103157.14;84740;1327;23743;-70
2022/03/18 05:22:40;;;;;;;37.10;18.30;;;;;;;-4.00;61.83;103159.42;83993;1327;1002982;-70
2022/03/18 05:24:49;;;;;;;43.50;18.90;;;;;;;-3.95;61.95;103158.08;84750;1327;22587;-72
2022/03/18 05:26:59;;;;;;;39.90;17.30;;;;;;;-3.83;61.82;103159.15;84665;1328;22552;-70
2022/03/18 05:29:13;;;;;;;34.40;16.50;;;;;;;-3.70;61.66;103158.67;84753;1327;22599;-76
2022/03/18 05:31:23;;;;;;;35.80;17.80;;;;;;;-3.55;61.63;103162.16;84020;1328;1003897;-77
2022/03/18 05:33:34;;;;;;;40.20;18.50;;;;;;;-3.43;61.69;103159.54;84749;1327;25436;-77
2022/03/18 05:35:43;;;;;;;40.80;18.10;;;;;;;-3.31;61.71;103161.84;84721;1327;22854;-77
2022/03/18 05:37:55;;;;;;;34.90;17.20;;;;;;;-3.20;61.99;103160.83;84719;1327;22572;-77
2022/03/18 05:40:06;;;;;;;30.20;16.20;;;;;;;-3.08;61.30;103167.22;84737;1327;22936;-74
2022/03/18 05:42:16;;;;;;;;;;;;;;;-2.97;61.18;103171.66;84763;1325;22571;-76
2022/03/18 05:44:26;;;;;;;30.30;15.90;;;;;;;-2.90;61.12;103174.29;84672;1329;25634;-76
2022/03/18 05:46:37;;;;;;;33.50;17.00;;;;;;;-2.80;60.84;103177.67;84753;1323;22820;-75
2022/03/18 05:48:50;;;;;;;29.30;16.80;;;;;;;-2.71;60.55;103179.93;84745;1327;22689;-75
2022/03/18 05:51:00;;;;;;;33.50;16.30;;;;;;;-2.58;60.70;103182.45;84706;1327;22612;-76
2022/03/18 05:53:09;;;;;;;26.20;17.10;;;;;;;-2.17;60.48;103182.81;84747;1327;22594;-76
2022/03/18 05:55:18;;;;;;;26.70;15.80;;;;;;;-1.40;61.87;103184.34;84736;1327;23908;-75
2022/03/18 05:57:27;;;;;;;33.10;18.90;;;;;;;-0.25;61.60;103182.99;84755;1327;23009;-72
2022/03/18 05:59:37;;;;;;;30.40;16.80;;;;;;;1.17;61.94;103171.83;84748;1321;22795;-70
2022/03/18 06:01:44;;;;;;;29.80;17.10;;;;;;;2.60;59.15;103172.04;84746;1327;22585;-70
2022/03/18 06:04:01;;;;;;;31.70;16.50;;;;;;;3.94;55.54;103173.91;84738;1327;24367;-68
2022/03/18 06:06:08;;;;;;;30.30;15.20;;;;;;;5.13;51.39;103163.17;84732;1327;22811;-73
2022/03/18 06:13:03;;;;;;;28.20;15.80;;;;;;;8.24;42.58;103166.53;84732;1327;22583;-70
2022/03/18 06:15:10;;;;;;;27.90;14.30;;;;;;;9.04;41.18;103166.88;84717;1327;22587;-69
2022/03/18 06:17:19;;;;;;;23.90;15.00;;;;;;;9.81;39.37;103168.27;84732;1327;22589;-68
2022/03/18 06:19:27;;;;;;;24.10;14.60;;;;;;;10.44;36.67;103169.36;84755;1327;25472;-69
2022/03/18 06:21:34;;;;;;;23.70;13.90;;;;;;;10.91;35.51;103174.55;84737;1327;22841;-70
2022/03/18 06:23:40;;;;;;;20.50;14.00;;;;;;;11.17;34.77;103176.60;84730;1330;24010;-68
2022/03/18 06:25:47;;;;;;;21.20;13.60;;;;;;;11.52;34.16;103181.11;84750;1321;22888;-76
2022/03/18 06:27:54;;;;;;;23.30;14.10;;;;;;;11.64;32.44;103185.16;84730;1321;22598;-76
2022/03/18 06:30:04;;;;;;;26.60;13.30;;;;;;;11.63;31.72;103185.34;84751;1330;22676;-76
2022/03/18 06:32:12;;;;;;;22.40;13.80;;;;;;;11.78;31.67;103187.48;84717;1327;22604;-77
2022/03/18 06:34:20;;;;;;;21.30;13.40;;;;;;;11.85;31.20;103186.11;84719;1327;22749;-76
2022/03/18 06:36:27;;;;;;;20.50;13.60;;;;;;;11.62;30.61;103184.63;84755;1328;25314;-77
2022/03/18 06:38:36;;;;;;;20.30;13.00;;;;;;;11.07;30.54;103188.09;84744;1328;22865;-76
2022/03/18 06:40:43;;;;;;;20.50;13.40;;;;;;;11.03;31.36;103189.48;84752;1327;22604;-76
2022/03/18 06:42:53;;;;;;;19.10;13.00;;;;;;;11.37;31.23;103193.65;84739;1327;22584;-77
2022/03/18 06:44:59;;;;;;;20.10;12.40;;;;;;;11.51;30.58;103193.36;84741;1327;22611;-68
2022/03/18 06:47:07;;;;;;;19.60;11.20;;;;;;;11.68;29.63;103191.47;84677;1327;22763;-69
2022/03/18 06:49:14;;;;;;;18.30;10.60;;;;;;;11.93;29.13;103190.50;84729;1327;22610;-76
2022/03/18 06:51:24;;;;;;;17.60;11.50;;;;;;;12.06;28.78;103192.63;84737;1327;22584;-75
2022/03/18 06:53:30;;;;;;;22.40;11.70;;;;;;;12.04;28.21;103192.61;84729;1327;22618;-73
2022/03/18 06:55:40;;;;;;;18.10;10.90;;;;;;;12.32;28.41;103189.48;84740;1320;22600;-77
2022/03/18 06:57:45;;;;;;;;;;;;;;;12.52;26.45;103191.40;84651;1330;24049;-74
2022/03/18 06:59:56;;;;;;;20.20;12.00;;;;;;;12.23;27.19;103193.51;84736;1327;24243;-69
2022/03/18 07:02:03;;;;;;;16.40;10.50;;;;;;;12.49;27.98;103188.41;84715;1324;22600;-69
2022/03/18 07:04:13;;;;;;;14.90;10.00;;;;;;;13.19;27.26;103189.84;84738;1327;22700;-69
2022/03/18 07:06:22;;;;;;;14.60;9.90;;;;;;;13.63;26.58;103190.17;84744;1327;24250;-68
2022/03/18 07:08:29;;;;;;;14.50;10.10;;;;;;;13.77;26.30;103193.08;84719;1327;22860;-69
2022/03/18 07:10:35;;;;;;;14.00;9.70;;;;;;;13.95;25.69;103195.77;84741;1327;23186;-69
2022/03/18 07:12:42;;;;;;;15.90;10.30;;;;;;;14.09;26.65;103193.71;84737;1327;22677;-68
2022/03/18 07:14:49;;;;;;;14.40;10.40;;;;;;;14.11;26.57;103195.48;84716;1327;23895;-68
2022/03/18 07:19:22;;;;;;;11.90;9.40;;;;;;;13.49;25.67;103205.85;84721;1327;22634;-76
2022/03/18 07:21:29;;;;;;;15.00;9.10;;;;;;;13.29;25.71;103204.02;84713;1328;22586;-75
2022/03/18 07:23:36;;;;;;;13.80;9.10;;;;;;;13.33;24.94;103208.55;84698;1324;22591;-76
2022/03/18 07:25:48;;;;;;;10.80;9.40;;;;;;;13.48;25.79;103208.67;84737;1327;22577;-76
2022/03/18 07:27:54;;;;;;;13.70;8.20;;;;;;;13.87;24.69;103206.52;84702;1327;22693;-77
2022/03/18 07:30:01;;;;;;;14.80;9.50;;;;;;;14.12;23.98;103202.13;84657;1329;24250;-71
2022/03/18 07:32:11;;;;;;;15.10;8.50;;;;;;;14.39;23.79;103205.42;84706;1327;22609;-69
2022/03/18 07:34:18;;;;;;;9.00;8.00;;;;;;;14.54;22.17;103205.49;84761;1327;22674;-76
2022/03/18 07:36:27;;;;;;;10.70;8.30;;;;;;;14.68;23.89;103207.65;84728;1321;22632;-77
2022/03/18 07:38:34;;;;;;;9.20;7.90;;;;;;;15.07;22.27;103204.59;84750;1325;22808;-84
2022/03/18 07:40:41;;;;;;;11.20;8.10;;;;;;;15.11;22.19;103203.13;84736;1324;22875;-69
2022/03/18 07:42:49;;;;;;;10.80;7.60;;;;;;;15.54;22.70;103209.27;84701;1327;25524;-71
2022/03/18 07:44:59;;;;;;;12.70;7.30;;;;;;;16.00;21.58;103211.98;84805;1326;23901;-77
2022/03/18 07:47:07;;;;;;;9.20;8.00;;;;;;;16.49;21.22;103206.43;84691;1327;22648;-77
2022/03/18 07:49:14;;;;;;;9.40;7.00;;;;;;;16.96;20.27;103209.46;84733;1326;23808;-70
2022/03/18 07:51:23;;;;;;;10.00;7.70;;;;;;;17.22;20.11;103210.70;84734;1324;22862;-67
2022/03/18 07:55:52;;;;;;;20.00;8.60;;;;;;;18.17;19.79;103219.54;82152;1365;545331;-71
2022/03/18 07:57:59;;;;;;;14.60;8.40;;;;;;;18.36;19.12;103215.89;84130;1340;22632;-71
2022/03/18 08:00:08;;;;;;;22.20;11.20;;;;;;;18.41;18.66;103210.28;84225;1339;22600;-76
2022/03/18 08:02:17;;;;;;;17.40;8.50;;;;;;;18.65;19.32;103213.02;84263;1340;25441;-75
2022/03/18 08:04:27;;;;;;;11.10;7.80;;;;;;;19.05;19.03;103210.52;84083;1339;23051;-77
2022/03/18 08:06:34;;;;;;;12.00;7.80;;;;;;;19.45;18.72;103217.84;84144;1340;22638;-77
2022/03/18 08:08:41;;;;;;;9.40;7.40;;;;;;;19.78;17.78;103212.62;84120;1340;25322;-76
2022/03/18 08:10:49;;;;;;;9.10;8.00;;;;;;;19.93;18.13;103214.23;84152;1336;22787;-70
2022/03/18 08:13:00;;;;;;;12.00;9.30;;;;;;;20.23;17.72;103210.80;84298;1337;22641;-71
2022/03/18 08:15:09;;;;;;;9.50;8.00;;;;;;;20.36;17.02;103213.90;84808;1327;24005;-69
2022/03/18 08:17:16;;;;;;;13.60;9.70;;;;;;;20.30;16.43;103216.58;84812;1325;22563;-70
2022/03/18 08:19:24;;;;;;;12.40;9.10;;;;;;;19.91;16.12;103221.05;84775;1326;22606;-75
2022/03/18 08:21:34;;;;;;;9.60;6.90;;;;;;;19.64;16.45;103224.56;84797;1329;24209;-77
2022/03/18 08:23:44;;;;;;;12.70;7.30;;;;;;;19.49;15.99;103229.24;84799;1326;22600;-75
2022/03/18 08:25:51;;;;;;;9.00;7.60;;;;;;;19.30;16.55;103223.09;84798;1325;22604;-75
2022/03/18 08:27:57;;;;;;;14.70;8.30;;;;;;;19.55;16.89;103228.00;84804;1326;23920;-75
2022/03/18 08:30:04;;;;;;;10.00;6.40;;;;;;;19.96;17.00;103223.00;84806;1324;23774;-69
2022/03/18 08:32:15;;;;;;;7.60;6.40;;;;;;;20.06;15.74;103225.00;84817;1327;22612;-70
2022/03/18 08:34:22;;;;;;;7.30;6.30;;;;;;;19.97;16.08;103230.42;84835;1318;22716;-75
2022/03/18 08:36:29;;;;;;;9.50;7.80;;;;;;;20.10;16.07;103226.66;84791;1325;22629;-75
2022/03/18 08:38:36;;;;;;;12.60;9.20;;;;;;;20.06;16.04;103229.95;84817;1325;22600;-76
2022/03/18 08:40:46;;;;;;;9.10;6.90;;;;;;;20.20;16.26;103227.89;84836;1327;24279;-70
2022/03/18 08:42:54;;;;;;;13.30;7.60;;;;;;;20.32;15.38;103223.08;84805;1327;25438;-71
2022/03/18 08:45:00;;;;;;;8.50;6.10;;;;;;;20.16;15.78;103226.27;84788;1326;22583;-76
2022/03/18 08:47:09;;;;;;;8.50;6.60;;;;;;;20.25;15.62;103225.61;84831;1326;22610;-76
2022/03/18 08:49:16;;;;;;;9.50;7.20;;;;;;;20.20;14.98;103225.05;84801;1327;23030;-69
2022/03/18 08:51:22;;;;;;;9.70;8.60;;;;;;;19.78;15.76;103227.15;84794;1326;22616;-70
2022/03/18 08:53:29;;;;;;;9.70;6.90;;;;;;;19.83;15.98;103228.59;84812;1326;22783;-70
2022/03/18 08:55:40;;;;;;;9.60;7.00;;;;;;;19.98;15.89;103224.20;84782;1327;22595;-76
2022/03/18 08:57:50;;;;;;;8.10;6.40;;;;;;;20.09;15.80;103221.52;84819;1325;22583;-77
2022/03/18 08:59:56;;;;;;;;;;;;;;;20.14;15.26;103227.42;84833;1326;24251;-75
2022/03/18 09:02:03;;;;;;;10.90;5.90;;;;;;;19.78;15.48;103229.98;84819;1324;22584;-76
2022/03/18 09:04:10;;;;;;;9.10;7.50;;;;;;;19.51;15.12;103231.33;84815;1326;22722;-70
2022/03/18 09:06:17;;;;;;;8.80;6.80;;;;;;;19.25;15.59;103230.65;84790;1326;22756;-70
2022/03/18 09:08:27;;;;;;;7.40;6.40;;;;;;;19.41;15.81;103229.83;84782;1324;22589;-70
2022/03/18 09:10:34;;;;;;;7.20;6.40;;;;;;;19.54;15.46;103233.31;84815;1327;22690;-75
2022/03/18 09:12:49;;;;;;;9.40;6.70;;;;;;;19.41;15.50;103232.30;84804;1327;22907;-74
2022/03/18 09:14:59;;;;;;;8.70;6.40;;;;;;;19.17;14.81;103236.18;84803;1329;22827;-69
2022/03/18 09:17:09;;;;;;;8.30;6.90;;;;;;;18.86;15.95;103235.11;84771;1321;22640;-72
2022/03/18 09:19:16;;;;;;;10.80;7.60;;;;;;;19.12;15.63;103241.98;84817;1327;23969;-71
2022/03/18 09:21:23;;;;;;;12.40;7.30;;;;;;;19.11;15.80;103234.23;84747;1327;25445;-70
2022/03/18 09:23:30;;;;;;;9.50;7.20;;;;;;;19.30;15.89;103235.45;84780;1326;26599;-71
2022/03/18 09:25:37;;;;;;;10.40;7.30;;;;;;;19.33;15.57;103235.91;84743;1318;22642;-76
2022/03/18 09:27:47;;;;;;;9.50;7.00;;;;;;;19.16;15.33;103235.31;84784;1322;22592;-77
2022/03/18 09:29:54;;;;;;;12.50;7.30;;;;;;;19.05;15.55;103235.66;84803;1326;22604;-71
2022/03/18 09:32:01;;;;;;;8.40;6.70;;;;;;;18.92;15.84;103230.89;84780;1326;24249;-70
2022/03/18 09:34:09;;;;;;;10.20;7.30;;;;;;;19.06;16.34;103234.21;84774;1325;25431;-70
2022/03/18 09:36:22;;;;;;;12.00;7.90;;;;;;;19.12;16.47;103231.19;84783;1326;22597;-72
2022/03/18 09:38:29;;;;;;;9.20;7.20;;;;;;;19.26;16.33;103230.98;84802;1325;23128;-71
2022/03/18 09:40:36;;;;;;;10.00;7.40;;;;;;;18.94;15.55;103235.23;84802;1326;24463;-72
2022/03/18 09:42:58;;;;;;;8.60;7.60;;;;;;;18.57;16.13;103234.77;84817;1326;22841;-71
2022/03/18 09:45:08;;;;;;;10.50;7.00;;;;;;;18.61;16.76;103237.69;84839;1327;22581;-71
2022/03/18 09:47:15;;;;;;;12.60;7.40;;;;;;;18.87;16.49;103233.14;84799;1326;24257;-72
2022/03/18 09:49:22;;;;;;;9.50;8.50;;;;;;;19.04;16.48;103231.94;84786;1327;22634;-70
2022/03/18 09:51:32;;;;;;;12.40;7.10;;;;;;;19.15;16.83;103232.86;84787;1327;22875;-69
2022/03/18 09:53:38;;;;;;;11.10;7.40;;;;;;;19.14;15.68;103229.55;84790;1327;22586;-69
2022/03/18 09:55:47;;;;;;;14.40;8.10;;;;;;;18.81;15.77;103235.59;84795;1322;22722;-69
2022/03/18 09:57:56;;;;;;;12.60;7.00;;;;;;;18.38;16.15;103233.48;84798;1326;22698;-70
2022/03/18 10:00:05;;;;;;;11.00;8.30;;;;;;;17.97;16.29;103234.51;84807;1327;22584;-70
2022/03/18 10:02:33;;;;;;;13.70;7.90;;;;;;;17.47;16.62;103238.77;84774;1326;23969;-70
2022/03/18 10:04:57;;;;;;;9.30;7.60;;;;;;;16.72;17.33;103236.17;84792;1328;22593;-80
2022/03/18 10:07:17;;;;;;;9.90;7.20;;;;;;;16.24;17.97;103244.70;84824;1322;22700;-76
2022/03/18 10:09:33;;;;;;;10.60;6.90;;;;;;;15.70;17.55;103246.21;84732;1327;22564;-69
2022/03/18 10:11:43;;;;;;;8.70;6.90;;;;;;;14.99;18.39;103244.41;84768;1326;22618;-70
2022/03/18 10:14:00;;;;;;;10.20;7.60;;;;;;;14.49;18.51;103248.20;84778;1321;22888;-69